Ko Samui, Thailand
Current Conditions -  °F | °C
As of 4:00 PM on Monday 20 Oct 2014 (Local Time) from VTSM Reporting Station
Broken Clouds Broken Clouds  
Wind Chill: 88°   Ceiling: 30000
Heat Index: 100°   Visibility: 6mi
Dew Point: 77°   Wind: 9mph
Humidity: 70%   Direction: 140°SE
Pressure: 29.8"   Gusts: NA
Location:  9.5°N, 100.01°E
Report Text: VTSM 200900Z 14008KT 9999 FEW020 BKN300 31/25 Q1009 A2982
Loading
Personal Weather Stations






























Interactive Weather Map New forecast layout! Learn more

10-Day Weather Forecast

Advertisements
Track Severe Weather on mobile